Time;durP1;ratioP1;P1;durP2;ratioP2;P2;SDS_P1;SDS_P2;PMS_P1;PMS_P2;Temp;Humidity;BMP_temperature;BMP_pressure;BME280_temperature;BME280_humidity;BME280_pressure;Samples;Min_cycle;Max_cycle;Signal;HPM_P1;HPM_P2
2022/07/28 00:01:44;;;;;;;2.13;0.70;;;;;;;18.40;nan;100545.97;5011073;28;20068;-64
2022/07/28 00:04:10;;;;;;;4.85;0.98;;;;;;;18.31;nan;100541.81;5010377;28;20793;-64
2022/07/28 00:06:35;;;;;;;3.13;0.77;;;;;;;18.25;nan;100537.25;5010565;28;20121;-65
2022/07/28 00:09:00;;;;;;;1.13;0.73;;;;;;;18.22;nan;100537.69;5010622;28;20414;-65
2022/07/28 00:11:26;;;;;;;0.77;0.57;;;;;;;18.10;nan;100531.25;5008415;28;20046;-64
2022/07/28 00:13:51;;;;;;;1.98;0.70;;;;;;;18.08;nan;100530.63;5009942;28;20045;-64
2022/07/28 00:16:16;;;;;;;2.00;0.70;;;;;;;18.03;nan;100526.69;5006806;28;20042;-64
2022/07/28 00:18:42;;;;;;;1.05;0.80;;;;;;;18.07;nan;100524.47;5008578;28;20490;-65
2022/07/28 00:21:07;;;;;;;1.20;0.52;;;;;;;18.00;nan;100521.75;5007397;28;20567;-64
2022/07/28 00:23:33;;;;;;;2.50;0.60;;;;;;;17.91;nan;100525.63;5009153;28;20048;-65
2022/07/28 00:25:58;;;;;;;1.63;0.70;;;;;;;17.81;nan;100530.53;5007989;28;20049;-65
2022/07/28 00:28:23;;;;;;;1.05;0.68;;;;;;;17.75;nan;100525.94;5007561;28;20037;-64
2022/07/28 00:30:48;;;;;;;1.50;0.60;;;;;;;17.70;nan;100534.56;5008693;28;20125;-64
2022/07/28 00:33:14;;;;;;;3.17;0.82;;;;;;;17.70;nan;100536.41;5008677;28;20050;-64
2022/07/28 00:35:39;;;;;;;1.60;0.70;;;;;;;17.71;nan;100540.72;5011350;28;20061;-65
2022/07/28 00:38:04;;;;;;;1.70;0.75;;;;;;;17.68;nan;100535.78;5011187;28;20111;-65
2022/07/28 00:43:14;;;;;;;1.55;0.60;;;;;;;17.61;nan;100541.09;5009399;28;20351;-64
2022/07/28 00:45:39;;;;;;;2.35;0.60;;;;;;;17.60;nan;100534.09;5010158;28;20433;-65
2022/07/28 00:48:05;;;;;;;2.40;0.73;;;;;;;17.57;nan;100534.50;5004629;28;20073;-65
2022/07/28 00:50:30;;;;;;;1.77;0.70;;;;;;;17.50;nan;100521.09;5005221;28;20490;-65
2022/07/28 00:52:57;;;;;;;2.92;0.70;;;;;;;17.43;nan;100522.09;5008557;28;20388;-65
2022/07/28 00:55:23;;;;;;;3.08;0.68;;;;;;;17.37;nan;100529.03;5006954;28;20276;-65
2022/07/28 00:57:48;;;;;;;1.35;0.80;;;;;;;17.39;nan;100527.81;5008769;28;20065;-65
2022/07/28 01:00:14;;;;;;;1.83;0.70;;;;;;;17.43;nan;100525.56;5007732;28;20119;-65
2022/07/28 01:02:40;;;;;;;3.03;0.70;;;;;;;17.41;nan;100520.41;5003482;28;20030;-65
2022/07/28 01:05:06;;;;;;;2.22;0.80;;;;;;;17.50;nan;100525.63;4995840;28;20038;-65
2022/07/28 01:08:01;;;;;;;1.83;0.70;;;;;;;17.54;nan;100521.50;5008790;28;20038;-65
2022/07/28 01:10:42;;;;;;;1.45;0.80;;;;;;;17.54;nan;100526.84;5007924;28;20052;-65
2022/07/28 01:13:25;;;;;;;2.45;0.82;;;;;;;17.52;nan;100527.06;5005304;28;20042;-65
2022/07/28 01:15:56;;;;;;;1.60;0.60;;;;;;;17.52;nan;100520.88;5004543;28;20033;-65
2022/07/28 01:18:27;;;;;;;2.45;0.80;;;;;;;17.54;nan;100518.84;5006608;28;20038;-66
2022/07/28 01:20:57;;;;;;;1.98;0.65;;;;;;;17.59;nan;100516.38;5005866;28;20045;-65
2022/07/28 01:23:32;;;;;;;1.48;0.63;;;;;;;17.59;nan;100511.03;4999484;28;20126;-65
2022/07/28 01:26:14;;;;;;;1.67;0.90;;;;;;;17.57;nan;100508.59;5005487;28;20048;-65
2022/07/28 01:28:59;;;;;;;1.10;0.50;;;;;;;17.54;nan;100509.00;5006743;28;20394;-65
2022/07/28 01:31:29;;;;;;;1.67;0.70;;;;;;;17.52;nan;100510.19;5006366;28;20073;-65
2022/07/28 01:33:59;;;;;;;1.83;0.70;;;;;;;17.48;nan;100507.09;5006991;28;20495;-65
2022/07/28 01:36:28;;;;;;;2.47;0.80;;;;;;;17.46;nan;100511.81;5002024;28;20042;-65
2022/07/28 01:38:54;;;;;;;2.33;0.77;;;;;;;17.44;nan;100505.00;5007719;28;20038;-65
2022/07/28 01:41:22;;;;;;;1.23;0.80;;;;;;;17.43;nan;100503.38;5008042;28;20387;-65
2022/07/28 01:43:54;;;;;;;2.03;0.80;;;;;;;17.43;nan;100508.72;5016595;28;20363;-65
2022/07/28 01:46:21;;;;;;;2.83;0.90;;;;;;;17.40;nan;100500.06;5005280;28;20034;-66
2022/07/28 01:48:49;;;;;;;2.20;0.80;;;;;;;17.40;nan;100499.25;5007164;28;20565;-65
2022/07/28 01:51:16;;;;;;;1.77;0.80;;;;;;;17.40;nan;100499.25;5003773;28;20041;-65
2022/07/28 01:53:44;;;;;;;1.38;0.80;;;;;;;17.41;nan;100501.72;5008823;28;20037;-65
2022/07/28 01:56:14;;;;;;;1.45;0.80;;;;;;;17.41;nan;100501.72;5005010;28;20044;-65
2022/07/28 01:58:42;;;;;;;3.17;0.80;;;;;;;17.41;nan;100496.34;5006670;28;20038;-65
2022/07/28 02:01:10;;;;;;;1.52;0.80;;;;;;;17.45;nan;100493.28;5006340;28;20050;-65
2022/07/28 02:03:36;;;;;;;1.67;0.70;;;;;;;17.45;nan;100494.13;5007810;28;20041;-65
2022/07/28 02:06:04;;;;;;;1.42;0.73;;;;;;;17.43;nan;100490.00;5005512;28;20037;-65
2022/07/28 02:08:32;;;;;;;3.28;0.55;;;;;;;17.39;nan;100487.72;5004538;28;20053;-65
2022/07/28 02:13:45;;;;;;;1.45;0.70;;;;;;;17.37;nan;100488.94;5006532;28;20068;-65
2022/07/28 02:16:12;;;;;;;2.63;0.70;;;;;;;17.32;nan;100484.16;5006376;28;20049;-65
2022/07/28 02:18:38;;;;;;;1.50;0.70;;;;;;;17.31;nan;100477.19;5006980;28;20049;-65
2022/07/28 02:21:05;;;;;;;2.17;1.00;;;;;;;17.32;nan;100472.66;5004918;28;20046;-65
2022/07/28 02:23:32;;;;;;;1.50;0.70;;;;;;;17.34;nan;100471.44;5006435;28;20038;-65
2022/07/28 02:26:02;;;;;;;2.15;0.60;;;;;;;17.37;nan;100464.88;5006229;28;20042;-65
2022/07/28 02:28:27;;;;;;;0.80;0.60;;;;;;;17.35;nan;100473.09;5006086;28;20037;-65
2022/07/28 02:30:56;;;;;;;1.38;0.80;;;;;;;17.36;nan;100471.25;5005226;28;20384;-65
2022/07/28 02:33:24;;;;;;;1.83;0.80;;;;;;;17.35;nan;100464.25;5004134;28;20049;-65
2022/07/28 02:35:53;;;;;;;1.30;0.70;;;;;;;17.36;nan;100473.94;5005553;28;20450;-65
2022/07/28 02:38:23;;;;;;;1.52;0.80;;;;;;;17.36;nan;100463.22;5005694;28;20042;-65
2022/07/28 02:40:52;;;;;;;1.80;0.88;;;;;;;17.37;nan;100463.03;5000003;28;20048;-65
2022/07/28 02:43:27;;;;;;;2.05;0.77;;;;;;;17.36;nan;100457.88;5005785;28;20048;-65
2022/07/28 02:45:57;;;;;;;1.58;0.90;;;;;;;17.33;nan;100453.78;5002874;28;20125;-65
2022/07/28 02:48:29;;;;;;;2.07;0.60;;;;;;;17.35;nan;100448.22;5003204;28;20488;-64
2022/07/28 02:50:56;;;;;;;1.30;0.75;;;;;;;17.36;nan;100444.53;5005661;28;20422;-65
2022/07/28 02:53:23;;;;;;;1.40;0.63;;;;;;;17.38;nan;100450.50;5007511;28;20037;-65
2022/07/28 02:55:49;;;;;;;1.45;0.55;;;;;;;17.35;nan;100453.56;5004003;28;20364;-65
2022/07/28 02:58:19;;;;;;;2.13;0.70;;;;;;;17.36;nan;100455.22;5005098;28;20079;-65
2022/07/28 03:00:47;;;;;;;1.15;0.70;;;;;;;17.32;nan;100449.44;5005910;28;20040;-64
2022/07/28 03:03:13;;;;;;;3.83;0.90;;;;;;;17.33;nan;100450.28;5010220;28;20033;-64
2022/07/28 03:05:40;;;;;;;1.40;0.75;;;;;;;17.33;nan;100451.09;5006551;28;20033;-65
2022/07/28 03:08:06;;;;;;;0.75;0.63;;;;;;;17.30;nan;100453.31;5004731;28;20132;-65
2022/07/28 03:10:31;;;;;;;2.85;0.85;;;;;;;17.34;nan;100454.59;5006099;28;20089;-65
2022/07/28 03:12:56;;;;;;;2.60;0.80;;;;;;;17.32;nan;100453.97;5005770;28;20037;-65
2022/07/28 03:15:22;;;;;;;2.00;0.80;;;;;;;17.34;nan;100454.59;5005468;28;20038;-65
2022/07/28 03:17:48;;;;;;;2.00;1.15;;;;;;;17.36;nan;100461.38;5005808;28;20040;-65
2022/07/28 03:20:13;;;;;;;1.50;0.80;;;;;;;17.36;nan;100465.91;5003647;28;20038;-65
2022/07/28 03:22:39;;;;;;;2.17;0.80;;;;;;;17.33;nan;100467.13;5007024;28;20036;-65
2022/07/28 03:25:12;;;;;;;1.75;0.90;;;;;;;17.33;nan;100466.31;5008063;28;20033;-65
2022/07/28 03:27:42;;;;;;;3.72;1.13;;;;;;;17.34;nan;100454.59;5004031;28;20157;-65
2022/07/28 03:30:13;;;;;;;1.80;0.90;;;;;;;17.32;nan;100453.97;5004491;28;20176;-65
2022/07/28 03:32:45;;;;;;;2.25;0.98;;;;;;;17.32;nan;100454.78;5005304;28;20065;-65
2022/07/28 03:35:12;;;;;;;2.78;0.90;;;;;;;17.31;nan;100458.47;5004635;28;20038;-65
2022/07/28 03:38:00;;;;;;;2.40;0.80;;;;;;;17.30;nan;100464.00;5004989;28;20435;-65
2022/07/28 03:40:28;;;;;;;1.65;0.80;;;;;;;17.29;nan;100460.53;4994178;28;20052;-65
2022/07/28 03:42:55;;;;;;;2.78;0.82;;;;;;;17.28;nan;100464.22;5004977;28;20699;-65
2022/07/28 03:45:22;;;;;;;1.50;0.90;;;;;;;17.23;nan;100463.97;5004271;28;20109;-65
2022/07/28 03:47:51;;;;;;;2.13;1.02;;;;;;;17.23;nan;100455.13;5006186;28;20034;-65
2022/07/28 03:50:17;;;;;;;2.85;1.00;;;;;;;17.23;nan;100455.13;5007105;28;20053;-65
2022/07/28 03:52:42;;;;;;;1.70;0.90;;;;;;;17.23;nan;100457.81;5004827;28;20264;-65
2022/07/28 03:55:08;;;;;;;3.03;1.02;;;;;;;17.21;nan;100455.34;5007605;28;20368;-65
2022/07/28 03:57:33;;;;;;;2.10;1.00;;;;;;;17.17;nan;100467.44;5008077;28;20096;-65
2022/07/28 03:59:58;;;;;;;2.50;1.10;;;;;;;17.14;nan;100452.63;5006530;28;20046;-65
2022/07/28 04:02:24;;;;;;;2.15;0.80;;;;;;;17.18;nan;100461.91;5005056;28;20038;-65
2022/07/28 04:04:49;;;;;;;3.20;1.02;;;;;;;17.18;nan;100450.38;5006586;28;20069;-65
2022/07/28 04:07:14;;;;;;;2.47;0.90;;;;;;;17.18;nan;100455.72;5004484;28;20041;-65
2022/07/28 04:09:40;;;;;;;1.40;0.87;;;;;;;17.20;nan;100462.53;4999567;28;20367;-65
2022/07/28 04:12:05;;;;;;;1.42;0.73;;;;;;;17.26;nan;100462.78;5005829;28;20289;-65
2022/07/28 04:14:31;;;;;;;1.52;0.80;;;;;;;17.26;nan;100457.44;5005397;28;20041;-63
2022/07/28 04:16:56;;;;;;;3.22;0.85;;;;;;;17.27;nan;100448.38;5003877;28;20034;-66
2022/07/28 04:19:21;;;;;;;1.50;0.80;;;;;;;17.32;nan;100449.44;5005019;28;20048;-64
2022/07/28 04:21:47;;;;;;;2.03;1.00;;;;;;;17.32;nan;100456.63;5004788;28;20415;-64
2022/07/28 04:24:12;;;;;;;2.10;1.10;;;;;;;17.41;nan;100460.78;5003250;28;20292;-65
2022/07/28 04:26:37;;;;;;;1.88;1.00;;;;;;;17.45;nan;100450.50;5004248;28;20146;-65
2022/07/28 04:29:03;;;;;;;3.55;1.10;;;;;;;17.49;nan;100444.56;5003180;28;20057;-65
2022/07/28 04:31:28;;;;;;;2.75;1.00;;;;;;;17.51;nan;100439.03;5003697;28;21369;-65
2022/07/28 04:33:54;;;;;;;1.50;0.80;;;;;;;17.53;nan;100445.00;5007533;28;20125;-64
2022/07/28 04:36:19;;;;;;;3.08;1.15;;;;;;;17.56;nan;100445.41;5007664;28;20065;-64
2022/07/28 04:38:45;;;;;;;2.72;1.00;;;;;;;17.60;nan;100443.19;5008868;28;20128;-65
2022/07/28 04:41:11;;;;;;;2.00;0.90;;;;;;;17.63;nan;100442.78;5009380;28;20387;-64
2022/07/28 04:43:37;;;;;;;2.10;1.00;;;;;;;17.70;nan;100445.47;5010899;28;20045;-64
2022/07/28 04:46:02;;;;;;;3.28;1.23;;;;;;;17.74;nan;100444.06;5008057;28;20037;-64
2022/07/28 04:48:28;;;;;;;2.08;1.00;;;;;;;17.79;nan;100446.97;5008437;28;20507;-64
2022/07/28 04:50:53;;;;;;;2.20;0.90;;;;;;;17.88;nan;100451.13;5008209;28;20455;-65
2022/07/28 04:53:18;;;;;;;1.83;0.82;;;;;;;17.98;nan;100456.09;5006859;28;20046;-65
2022/07/28 04:55:44;;;;;;;1.65;0.98;;;;;;;18.08;nan;100459.19;5010780;28;20057;-64
2022/07/28 04:58:11;;;;;;;1.77;0.98;;;;;;;18.16;nan;100458.19;5010244;28;20052;-64
2022/07/28 05:00:36;;;;;;;2.45;1.05;;;;;;;18.21;nan;100453.03;5010450;28;20072;-64
2022/07/28 05:03:03;;;;;;;1.98;0.85;;;;;;;18.28;nan;100456.53;5010727;28;20454;-65
2022/07/28 05:05:28;;;;;;;2.80;0.90;;;;;;;18.42;nan;100455.56;5007976;28;20039;-65
2022/07/28 05:07:54;;;;;;;1.27;0.70;;;;;;;18.57;nan;100452.69;5008166;28;20037;-65
2022/07/28 05:10:19;;;;;;;1.88;0.90;;;;;;;18.72;nan;100452.47;5007468;28;20026;-65
2022/07/28 05:12:46;;;;;;;2.67;1.00;;;;;;;18.82;nan;100449.38;5007967;28;20108;-64
2022/07/28 05:15:11;;;;;;;3.72;1.10;;;;;;;18.92;nan;100457.81;5007395;28;20046;-65
2022/07/28 05:17:36;;;;;;;3.83;1.10;;;;;;;18.95;nan;100452.06;5007697;28;20235;-65
2022/07/28 05:20:03;;;;;;;3.15;1.20;;;;;;;19.01;nan;100453.88;5008812;28;20042;-64
2022/07/28 05:22:29;;;;;;;2.35;1.08;;;;;;;19.03;nan;100451.81;5005204;28;20034;-65
2022/07/28 05:24:54;;;;;;;2.63;1.10;;;;;;;19.12;nan;100451.63;5006695;28;20509;-65
2022/07/28 05:27:20;;;;;;;2.40;1.20;;;;;;;19.12;nan;100451.63;5008106;28;20565;-65
2022/07/28 05:29:45;;;;;;;2.33;0.93;;;;;;;19.15;nan;100452.00;5008000;28;20038;-65
2022/07/28 05:32:11;;;;;;;2.03;0.93;;;;;;;19.19;nan;100455.94;5005779;28;20034;-64
2022/07/28 05:34:36;;;;;;;1.85;1.05;;;;;;;19.20;nan;100451.38;5008993;28;20296;-64
2022/07/28 05:37:02;;;;;;;3.13;1.10;;;;;;;19.16;nan;100455.50;5010161;28;20395;-64
2022/07/28 05:39:30;;;;;;;1.40;1.00;;;;;;;19.21;nan;100464.59;5007718;28;20069;-66
2022/07/28 05:41:55;;;;;;;4.10;1.15;;;;;;;19.20;nan;100464.78;5002827;28;20038;-64
2022/07/28 05:44:21;;;;;;;2.40;1.15;;;;;;;19.26;nan;100454.06;5006108;28;20406;-65
2022/07/28 05:46:46;;;;;;;5.67;1.00;;;;;;;19.53;nan;100464.69;5004372;28;20042;-64
2022/07/28 05:49:11;;;;;;;1.42;0.88;;;;;;;20.01;nan;100468.81;5004592;28;20579;-65
2022/07/28 05:51:36;;;;;;;2.65;1.05;;;;;;;20.55;nan;100465.59;5007452;28;20077;-65
2022/07/28 05:54:02;;;;;;;2.43;1.13;;;;;;;20.68;nan;100469.19;5003828;28;20141;-66
2022/07/28 05:56:27;;;;;;;3.47;1.27;;;;;;;20.75;nan;100469.97;5008359;28;20646;-66
2022/07/28 05:58:52;;;;;;;2.58;0.98;;;;;;;20.84;nan;100471.34;5008446;28;20038;-66
2022/07/28 06:01:18;;;;;;;5.55;1.50;;;;;;;20.94;nan;100465.47;5010234;28;20045;-65
2022/07/28 06:03:43;;;;;;;2.42;1.08;;;;;;;20.93;nan;100466.50;5009621;28;20033;-64
2022/07/28 06:06:09;;;;;;;3.67;1.30;;;;;;;20.99;nan;100474.50;5009480;28;20109;-64
2022/07/28 06:08:35;;;;;;;2.35;1.00;;;;;;;21.06;nan;100470.94;5009314;28;20038;-65
2022/07/28 06:11:01;;;;;;;2.90;1.30;;;;;;;21.07;nan;100472.56;5009063;28;20038;-65
2022/07/28 06:13:27;;;;;;;4.50;1.30;;;;;;;21.05;nan;100466.59;5010292;28;20045;-64
2022/07/28 06:15:52;;;;;;;2.03;0.95;;;;;;;21.07;nan;100472.56;5010334;28;20153;-65
2022/07/28 06:18:19;;;;;;;2.97;1.17;;;;;;;21.47;nan;100466.78;5010259;28;20358;-64
2022/07/28 06:20:45;;;;;;;4.65;1.17;;;;;;;21.66;nan;100457.63;5010452;28;20371;-66
2022/07/28 06:23:11;;;;;;;2.78;0.90;;;;;;;21.78;nan;100460.38;5010489;28;20030;-65
2022/07/28 06:25:36;;;;;;;3.70;1.30;;;;;;;21.67;nan;100455.78;5010640;28;20061;-65
2022/07/28 06:28:02;;;;;;;1.98;1.00;;;;;;;21.87;nan;100464.41;5010066;28;20523;-65
2022/07/28 06:30:28;;;;;;;4.07;1.20;;;;;;;22.24;nan;100467.03;5009549;28;20429;-65
2022/07/28 06:32:54;;;;;;;4.47;1.58;;;;;;;22.79;nan;100472.16;5009578;28;20522;-65
2022/07/28 06:35:20;;;;;;;2.90;1.30;;;;;;;23.26;nan;100466.78;5009380;28;20686;-65
2022/07/28 06:37:48;;;;;;;4.22;1.13;;;;;;;23.79;nan;100464.91;5008274;28;20038;-66
2022/07/28 06:40:13;;;;;;;;;;;;;;;24.34;nan;100463.44;5009414;28;20590;-66
2022/07/28 06:42:43;;;;;;;3.50;1.40;;;;;;;24.92;nan;100473.03;5009526;28;20004;-66
2022/07/28 06:45:09;;;;;;;2.15;0.80;;;;;;;25.77;nan;100465.50;5008085;28;20471;-66
2022/07/28 06:47:35;;;;;;;1.97;1.03;;;;;;;26.37;nan;100469.06;5008284;28;20437;-66
2022/07/28 06:50:01;;;;;;;2.97;1.10;;;;;;;26.64;nan;100460.91;5007683;28;20496;-66
2022/07/28 06:52:27;;;;;;;3.10;1.00;;;;;;;26.74;nan;100464.78;5008229;28;20393;-66
2022/07/28 06:54:52;;;;;;;1.70;0.83;;;;;;;26.90;nan;100467.31;5006187;28;20405;-65
2022/07/28 06:57:19;;;;;;;2.20;0.90;;;;;;;26.82;nan;100464.31;5009367;28;20503;-66
2022/07/28 06:59:45;;;;;;;1.90;0.90;;;;;;;26.91;nan;100465.44;5008980;28;20034;-66
2022/07/28 07:02:11;;;;;;;4.40;1.20;;;;;;;26.75;nan;100471.84;5008352;28;20038;-67
2022/07/28 07:04:36;;;;;;;2.20;0.80;;;;;;;26.54;nan;100465.44;5008733;28;20057;-66
2022/07/28 07:07:02;;;;;;;3.00;1.00;;;;;;;26.23;nan;100473.28;5008437;28;20061;-65
2022/07/28 07:09:27;;;;;;;1.73;0.90;;;;;;;26.07;nan;100472.31;5008813;28;20042;-65
2022/07/28 07:11:52;;;;;;;;;;;;;;;26.23;nan;100467.88;5009311;28;20038;-66
2022/07/28 07:14:18;;;;;;;;;;;;;;;26.39;nan;100468.84;5008919;28;19913;-65
2022/07/28 07:16:43;;;;;;;2.67;1.13;;;;;;;26.81;nan;100468.88;5008722;28;19920;-65
2022/07/28 07:19:08;;;;;;;3.17;0.85;;;;;;;26.85;nan;100461.88;5008452;28;20297;-65
2022/07/28 07:21:34;;;;;;;4.28;1.10;;;;;;;26.64;nan;100468.22;5008736;28;20042;-65
2022/07/28 07:23:59;;;;;;;2.90;1.00;;;;;;;26.28;nan;100455.16;5008652;28;20409;-65
2022/07/28 07:26:25;;;;;;;2.17;0.80;;;;;;;26.65;nan;100456.31;5006870;28;20429;-65
2022/07/28 07:28:50;;;;;;;2.27;0.80;;;;;;;26.95;nan;100458.41;5007165;28;20385;-67
2022/07/28 07:31:16;;;;;;;;;;;;;;;27.09;nan;100462.28;5008292;28;20034;-65
2022/07/28 07:33:41;;;;;;;4.45;1.65;;;;;;;27.18;nan;100459.88;5008491;28;19925;-65
2022/07/28 07:36:06;;;;;;;5.70;2.58;;;;;;;27.47;nan;100451.34;5008208;28;20034;-65
2022/07/28 07:38:32;;;;;;;7.05;2.50;;;;;;;28.05;nan;100448.53;5008229;28;20235;-65
2022/07/28 07:40:58;;;;;;;4.15;1.48;;;;;;;28.47;nan;100451.03;5008553;28;20042;-66
2022/07/28 07:43:23;;;;;;;3.15;1.50;;;;;;;29.13;nan;100455.56;5008057;28;20399;-66
2022/07/28 07:45:49;;;;;;;3.97;1.70;;;;;;;29.20;nan;100458.00;5008485;28;20129;-65
2022/07/28 07:48:14;;;;;;;3.50;1.30;;;;;;;28.87;nan;100449.34;5007320;28;20034;-66
2022/07/28 07:50:39;;;;;;;2.08;1.08;;;;;;;28.24;nan;100454.25;5008058;28;20269;-66
2022/07/28 07:53:05;;;;;;;2.05;1.00;;;;;;;28.41;nan;100351.44;5000994;28;20774;-65
2022/07/28 07:55:30;;;;;;;4.53;1.02;;;;;;;28.64;nan;100325.56;5005671;28;20342;-65
2022/07/28 07:57:56;;;;;;;3.88;1.50;;;;;;;28.35;nan;100347.13;5008268;28;20030;-65
2022/07/28 08:00:22;;;;;;;2.78;1.15;;;;;;;28.06;nan;100347.69;5007906;28;20406;-65
2022/07/28 08:02:47;;;;;;;4.35;1.25;;;;;;;27.73;nan;100385.13;5005308;28;20030;-65
2022/07/28 08:05:13;;;;;;;;;;;;;;;27.45;nan;100397.28;5008481;28;20518;-65
2022/07/28 08:07:38;;;;;;;;;;;;;;;27.41;nan;100455.97;5000725;28;19942;-66
2022/07/28 08:10:05;;;;;;;4.60;1.48;;;;;;;27.92;nan;100453.41;5011869;28;19920;-65
2022/07/28 08:12:30;;;;;;;1.63;1.00;;;;;;;28.06;nan;100459.13;5010649;28;20935;-67
2022/07/28 08:14:55;;;;;;;4.45;1.40;;;;;;;28.24;nan;100449.63;5011559;28;20065;-67
2022/07/28 08:17:21;;;;;;;;;;;;;;;28.28;nan;100444.47;5012618;28;20495;-65
2022/07/28 08:19:46;;;;;;;;;;;;;;;28.92;nan;100453.97;5011386;28;20299;-65
2022/07/28 08:22:12;;;;;;;2.88;1.20;;;;;;;29.23;nan;100457.44;5010833;28;19928;-67
2022/07/28 08:24:37;;;;;;;;;;;;;;;29.27;nan;100449.50;5012913;28;20026;-65
2022/07/28 08:27:03;;;;;;;1.87;0.90;;;;;;;30.11;nan;100452.34;5011847;28;19971;-67
2022/07/28 08:29:29;;;;;;;2.55;1.10;;;;;;;30.90;nan;100453.84;5010708;28;20087;-67
2022/07/28 08:31:54;;;;;;;2.67;1.15;;;;;;;31.50;nan;100463.56;5010267;28;20238;-68
2022/07/28 08:34:20;;;;;;;1.88;1.20;;;;;;;32.11;nan;100453.69;4993548;28;20125;-67
2022/07/28 08:36:45;;;;;;;3.25;1.55;;;;;;;32.17;nan;100441.53;5010758;28;20037;-65
2022/07/28 08:39:11;;;;;;;2.60;1.40;;;;;;;32.45;nan;100439.72;5011227;28;20046;-65
2022/07/28 08:41:50;;;;;;;;;;;;;;;32.37;nan;100446.69;5010500;28;20057;-65
2022/07/28 08:44:31;;;;;;;3.75;1.45;;;;;;;31.79;nan;100435.28;5010351;28;19963;-67
2022/07/28 08:46:57;;;;;;;;;;;;;;;32.30;nan;100445.47;5008953;28;20064;-65
2022/07/28 08:49:23;;;;;;;2.22;1.63;;;;;;;32.86;nan;100438.97;5011021;28;19974;-67
2022/07/28 08:51:49;;;;;;;2.95;1.40;;;;;;;33.15;nan;100437.91;5011466;28;20422;-67
2022/07/28 08:54:26;;;;;;;2.15;1.20;;;;;;;33.74;nan;100438.03;5008747;28;20045;-67
2022/07/28 08:56:54;;;;;;;3.13;1.00;;;;;;;34.29;nan;100437.00;5003422;28;20033;-68
2022/07/28 08:59:20;;;;;;;2.08;1.30;;;;;;;34.79;nan;100432.13;5005581;28;20038;-67
2022/07/28 09:01:46;;;;;;;3.03;1.75;;;;;;;35.46;nan;100431.03;5010495;28;20509;-67
2022/07/28 09:04:13;;;;;;;4.07;1.65;;;;;;;35.07;nan;100423.66;5009936;28;20494;-67
2022/07/28 09:06:41;;;;;;;2.70;1.75;;;;;;;35.49;nan;100418.56;5010284;28;20025;-67
2022/07/28 09:09:08;;;;;;;3.47;1.30;;;;;;;35.68;nan;100423.78;5009637;28;20498;-66
2022/07/28 09:11:35;;;;;;;2.72;1.55;;;;;;;36.24;nan;100426.69;5010670;28;20033;-66
2022/07/28 09:14:00;;;;;;;2.90;1.90;;;;;;;35.99;nan;100418.09;5010154;28;20034;-67
2022/07/28 09:16:26;;;;;;;2.97;1.60;;;;;;;36.24;nan;100410.97;5008981;28;20532;-66
2022/07/28 09:18:51;;;;;;;2.53;1.60;;;;;;;36.37;nan;100414.66;5009457;28;20482;-67
2022/07/28 09:21:17;;;;;;;2.80;1.50;;;;;;;36.77;nan;100409.66;5010645;28;20041;-66
2022/07/28 09:23:44;;;;;;;2.53;1.73;;;;;;;37.31;nan;100414.59;5010101;28;20037;-67
2022/07/28 09:26:10;;;;;;;3.10;1.60;;;;;;;37.62;nan;100418.94;5010200;28;20065;-67
2022/07/28 09:28:47;;;;;;;4.20;1.75;;;;;;;37.15;nan;100410.81;5008716;28;20688;-67
2022/07/28 09:31:12;;;;;;;3.58;1.98;;;;;;;36.53;nan;100406.66;5009835;28;20195;-66
2022/07/28 09:33:38;;;;;;;;;;;;;;;34.94;nan;100402.59;5003242;28;20112;-66
2022/07/28 09:36:03;;;;;;;;;;;;;;;34.37;nan;100400.56;5009279;28;19917;-66
2022/07/28 09:38:38;;;;;;;;;;;;;;;35.02;nan;100394.38;5008342;28;19921;-66
2022/07/28 09:41:07;;;;;;;3.55;1.77;;;;;;;35.83;nan;100397.75;5010442;28;19924;-67
2022/07/28 09:43:37;;;;;;;3.55;1.67;;;;;;;35.84;nan;100397.41;5010451;28;20037;-67
2022/07/28 09:46:04;;;;;;;3.67;1.58;;;;;;;36.15;nan;100390.91;5004216;28;20038;-66
2022/07/28 09:48:30;;;;;;;3.90;1.80;;;;;;;36.31;nan;100388.44;5007769;28;20038;-66
2022/07/28 09:51:10;;;;;;;3.28;1.67;;;;;;;36.90;nan;100384.97;5008529;28;20030;-67
2022/07/28 09:53:35;;;;;;;3.67;1.40;;;;;;;38.01;nan;100395.53;5008922;28;20030;-67
2022/07/28 09:56:01;;;;;;;3.47;1.43;;;;;;;38.16;nan;100388.56;5009962;28;20517;-67
2022/07/28 09:58:28;;;;;;;2.55;1.30;;;;;;;38.66;nan;100390.28;5002832;28;20344;-67
2022/07/28 10:01:19;;;;;;;2.53;1.45;;;;;;;39.57;nan;100385.53;5009577;28;20446;-67
2022/07/28 10:03:50;;;;;;;3.30;1.40;;;;;;;39.04;nan;100386.34;5007272;28;20412;-66
2022/07/28 10:06:15;;;;;;;;;;;;;;;38.42;nan;100384.69;5008691;28;20095;-66
2022/07/28 10:08:43;;;;;;;;;;;;;;;37.36;nan;100375.78;5009204;28;19996;-67
2022/07/28 10:11:10;;;;;;;3.15;1.50;;;;;;;37.74;nan;100379.56;5009010;28;19921;-67
2022/07/28 10:13:50;;;;;;;2.45;1.50;;;;;;;37.75;nan;100375.63;5008037;28;21035;-67
2022/07/28 10:16:17;;;;;;;;;;;;;;;37.92;nan;100369.94;5008749;28;20040;-67
2022/07/28 10:18:43;;;;;;;;;;;;;;;38.23;nan;100369.50;5008815;28;19931;-67
2022/07/28 10:21:09;;;;;;;;;;;;;;;38.13;nan;100360.81;5008148;28;19925;-67
2022/07/28 10:23:35;;;;;;;;;;;;;;;38.24;nan;100356.47;5009129;28;20312;-67
2022/07/28 10:26:03;;;;;;;2.30;1.30;;;;;;;37.68;nan;100359.63;5007604;28;19933;-67
2022/07/28 10:28:30;;;;;;;2.00;1.20;;;;;;;37.11;nan;100352.75;4988182;28;20030;-67
2022/07/28 10:31:00;;;;;;;4.30;1.17;;;;;;;36.62;nan;100346.06;5006434;28;20030;-67
2022/07/28 10:33:30;;;;;;;2.77;1.60;;;;;;;36.27;nan;100343.44;5026944;28;20041;-66
2022/07/28 10:35:58;;;;;;;2.30;1.30;;;;;;;35.32;nan;100350.63;5013827;28;20525;-66
2022/07/28 10:38:34;;;;;;;2.63;1.50;;;;;;;34.22;nan;100350.41;5005560;28;20326;-66
2022/07/28 10:41:02;;;;;;;2.92;1.35;;;;;;;33.49;nan;100349.72;5006253;28;20495;-66
2022/07/28 10:43:29;;;;;;;2.70;1.42;;;;;;;33.33;nan;100345.72;5008467;28;20103;-67
2022/07/28 10:45:56;;;;;;;2.95;1.40;;;;;;;33.22;nan;100351.41;5018171;28;20032;-66
2022/07/28 10:48:22;;;;;;;3.03;1.42;;;;;;;32.54;nan;100341.31;5027177;28;20055;-66
2022/07/28 10:50:48;;;;;;;2.60;1.45;;;;;;;32.38;nan;100329.81;5009490;28;20510;-67
2022/07/28 10:53:28;;;;;;;2.67;1.52;;;;;;;32.29;nan;100323.41;5007845;28;20041;-66
2022/07/28 10:56:02;;;;;;;3.80;1.55;;;;;;;32.49;nan;100336.72;5008041;28;20033;-66
2022/07/28 10:58:46;;;;;;;;;;;;;;;31.93;nan;100338.50;5008083;28;20025;-66
2022/07/28 11:01:38;;;;;;;2.65;1.45;;;;;;;31.27;nan;100336.78;5007977;28;20008;-66
2022/07/28 11:04:05;;;;;;;4.43;1.65;;;;;;;31.60;nan;100337.69;5006826;28;20054;-66
2022/07/28 11:06:38;;;;;;;3.20;1.65;;;;;;;31.47;nan;100338.44;5008043;28;20029;-67
2022/07/28 11:09:16;;;;;;;2.88;1.48;;;;;;;31.18;nan;100327.59;5007836;28;20099;-66
2022/07/28 11:11:48;;;;;;;2.33;1.50;;;;;;;31.05;nan;100327.22;5008562;28;20068;-66
2022/07/28 11:14:35;;;;;;;2.40;1.30;;;;;;;31.38;nan;100324.59;5007599;28;20046;-66
2022/07/28 11:17:03;;;;;;;2.25;1.42;;;;;;;31.55;nan;100320.56;5009472;28;20097;-67
2022/07/28 11:19:52;;;;;;;3.78;1.30;;;;;;;32.00;nan;100320.94;5008148;28;20050;-66
2022/07/28 11:22:18;;;;;;;3.17;1.75;;;;;;;32.97;nan;100321.81;5006461;28;20066;-66
2022/07/28 11:25:09;;;;;;;3.85;1.73;;;;;;;33.96;nan;100324.75;5007692;28;20077;-66
2022/07/28 11:27:41;;;;;;;4.35;1.77;;;;;;;34.50;nan;100316.47;5007422;28;20129;-67
2022/07/28 11:30:08;;;;;;;2.92;1.48;;;;;;;36.13;nan;100310.59;5007597;28;20034;-66
2022/07/28 11:32:48;;;;;;;2.42;1.23;;;;;;;38.09;nan;100324.00;5005746;28;20030;-66
2022/07/28 11:35:13;;;;;;;3.25;1.45;;;;;;;38.90;nan;100305.69;5006982;28;20052;-66
2022/07/28 11:38:09;;;;;;;3.42;1.65;;;;;;;39.07;nan;100302.69;5007500;28;20109;-66
2022/07/28 11:40:45;;;;;;;2.65;1.42;;;;;;;38.94;nan;100301.13;4974972;28;20045;-66
2022/07/28 11:43:20;;;;;;;3.15;1.60;;;;;;;39.08;nan;100306.28;5018084;28;20038;-66
2022/07/28 11:45:46;;;;;;;4.30;1.30;;;;;;;39.55;nan;100311.19;5017266;28;20309;-67
2022/07/28 11:48:13;;;;;;;2.83;1.20;;;;;;;40.46;nan;100302.09;5001100;28;20133;-67
2022/07/28 11:50:40;;;;;;;2.78;1.20;;;;;;;40.73;nan;100299.53;4989092;28;20078;-67
2022/07/28 11:53:05;;;;;;;1.95;1.10;;;;;;;41.45;nan;100296.31;4989725;28;20027;-67
2022/07/28 11:55:32;;;;;;;2.25;1.02;;;;;;;41.79;nan;100304.91;5008819;28;20030;-67